Currently 47°F in Perris, California, USA
47°F
51°F / 47°F
4 mph S
0.00"
Thursday, March 23, 2017 5:16 AM PDT

Perris, California Weather Summary
Last 36 Hours

Temperature Winds Hourly Humidity Dewpoint
Time Report Norm Report Norm Max Gusts Precip. Rpt. Norm Rpt. Norm Pressure
1Thu 05:16 AM  47.2°F  49°F  4 mph S  1 mph  10 mph  0.00"  98%  83%  47°F  44°F  30.04"
3Thu 05:03 AM  47.0°F  49°F  5 mph S  1 mph  10 mph  ----  98%  82%  46°F  44°F  30.04"
Thu 05:00 AM  47.0°F  49°F  6 mph SE  1 mph  10 mph  0.00"  98%  82%  46°F  44°F  30.03"
Thu 04:00 AM  47.7°F  50°F  6 mph S  1 mph  10 mph  0.00"  97%  81%  47°F  44°F  30.03"
Thu 03:00 AM  47.8°F  51°F  6 mph S  1 mph  8 mph  0.00"  96%  79%  47°F  44°F  30.03"
Thu 02:00 AM  49.3°F  52°F  calm  1 mph  6 mph  0.00"  93%  76%  47°F  44°F  30.03"
Thu 01:00 AM  49.5°F  53°F  3 mph SE  2 mph  4 mph  0.00"  91%  73%  47°F  45°F  30.02"
2Thu 12:01 AM  50.6°F  54°F  3 mph S  2 mph  3 mph  ----  87%  71%  47°F  45°F  30.01"
Thu 12:00 AM  50.5°F  54°F  2 mph S  2 mph  5 mph  0.00"  87%  71%  47°F  45°F  30.01"
Wed 11:00 PM  51.5°F  56°F  calm  2 mph  6 mph  0.00"  84%  69%  47°F  45°F  30.00"
Wed 10:00 PM  53.3°F  57°F  1 mph SW  2 mph  6 mph  0.00"  79%  65%  47°F  45°F  30.01"
Wed 09:00 PM  52.9°F  59°F  2 mph SE  3 mph  5 mph  0.00"  82%  60%  47°F  44°F  30.00"
Wed 08:00 PM  54.5°F  61°F  calm  3 mph  11 mph  0.00"  78%  53%  48°F  43°F  29.98"
Wed 07:00 PM  57.9°F  65°F  4 mph W  3 mph  18 mph  0.00"  71%  45%  48°F  42°F  29.96"
Wed 06:00 PM  61.5°F  69°F  7 mph W  5 mph  19 mph  0.00"  65%  38%  49°F  41°F  29.94"
Wed 05:00 PM  65.2°F  71°F  7 mph NW  5 mph  14 mph  0.00"  56%  33%  48°F  39°F  29.92"
Wed 04:00 PM  64.6°F  72°F  6 mph W  5 mph  15 mph  0.00"  59%  32%  50°F  39°F  29.95"
Wed 03:00 PM  62.9°F  72°F  6 mph SW  5 mph  14 mph  0.00"  67%  31%  51°F  39°F  29.96"
Wed 02:00 PM  63.7°F  72°F  3 mph W  4 mph  16 mph  0.00"  68%  32%  52°F  39°F  30.00"
Wed 01:00 PM  63.3°F  70°F  5 mph W  3 mph  15 mph  0.00"  72%  34%  54°F  40°F  30.01"
Wed 12:00 PM  61.5°F  68°F  6 mph NW  3 mph  13 mph  0.00"  80%  41%  55°F  42°F  30.03"
Wed 11:00 AM  62.0°F  64°F  4 mph S  3 mph  13 mph  0.00"  75%  51%  54°F  45°F  30.04"
Wed 10:00 AM  58.8°F  59°F  6 mph S  2 mph  8 mph  0.00"  91%  64%  56°F  46°F  30.04"
Wed 09:00 AM  56.5°F  53°F  5 mph S  2 mph  9 mph  0.00"  98%  78%  56°F  46°F  30.05"
Wed 08:00 AM  55.5°F  48°F  2 mph S  1 mph  7 mph  0.00"  99%  85%  55°F  43°F  30.04"
Wed 07:00 AM  54.9°F  48°F  calm  1 mph  4 mph  0.00"  99%  83%  54°F  43°F  30.05"
Wed 06:00 AM  54.9°F  48°F  1 mph SE  1 mph  7 mph  0.00"  99%  83%  54°F  43°F  30.05"
Wed 05:00 AM  54.8°F  49°F  3 mph S  1 mph  7 mph  0.00"  99%  82%  54°F  44°F  30.04"
Wed 04:00 AM  54.6°F  50°F  3 mph SE  1 mph  8 mph  0.00"  99%  81%  54°F  44°F  30.04"
Wed 03:00 AM  54.5°F  51°F  5 mph S  1 mph  8 mph  0.00"  99%  79%  54°F  44°F  30.06"
Wed 02:00 AM  54.7°F  52°F  4 mph S  1 mph  8 mph  0.00"  99%  77%  54°F  44°F  30.07"
Wed 01:00 AM  54.7°F  53°F  5 mph S  2 mph  10 mph  0.00"  98%  74%  54°F  45°F  30.07"
Wed 12:00 AM  55.1°F  55°F  5 mph S  2 mph  8 mph  0.00"  99%  71%  55°F  45°F  30.07"
Tue 11:00 PM  55.2°F  56°F  5 mph S  2 mph  9 mph  0.01"  98%  68%  55°F  45°F  30.07"
Tue 10:00 PM  56.3°F  57°F  4 mph S  2 mph  9 mph  0.00"  96%  64%  55°F  45°F  30.08"
Tue 09:00 PM  57.4°F  59°F  5 mph S  2 mph  8 mph  0.00"  96%  59%  56°F  45°F  30.07"
Tue 08:00 PM  58.1°F  62°F  2 mph SE  3 mph  5 mph  0.00"  96%  52%  57°F  43°F  30.07"
Tue 07:00 PM  58.3°F  65°F  3 mph W  3 mph  10 mph  0.00"  94%  44%  57°F  42°F  30.07"
Tue 06:00 PM  59.5°F  69°F  5 mph NW  5 mph  13 mph  0.00"  88%  38%  56°F  41°F  30.07"

  1. Current weather data. No green row appears if the current weather data is also the high or low for the current day.
  2. High temperature for the current day.
  3. Low temperature for the current day.

The Perris, California weather pages are a service of WeatherCurrents. Perris is located in Southern California's Inland Empire, south of Riverside and north of Sun City, along the Interstate 215 freeway.
Copyright ©Thu Mar 23 05:17:04 PDT 2017  WeatherCurrents. All rights reserved. - Submit questions and comments - Privacy Policy

This page automatically refreshes every 10 minutes.